Limpopo Valley Airport


Codes: FBTL/TLD
Name: Limpopo Valley Airport
City: Tuli Lodge
Country: Botswana
Elevation: 1772 ft.

Photos at Limpopo Valley Airport


   Photos courtesy of SpottingLog. You can add your own sightings and photos by signing up for a free trial today.



No photos found.

Weather at Limpopo Valley Airport


Time (UTC)DescriptionTempratureWindCloud coverageVisibilityPressureHumidity
16-Jun-2024 09:00Scattered Clouds22°C13 mph, E27%10000m1024hPa47%
16-Jun-2024 12:00Scattered Clouds23°C13 mph, NE26%10000m1023hPa44%
16-Jun-2024 15:00Few Clouds23°C11 mph, NE19%10000m1022hPa40%
16-Jun-2024 18:00Clear Sky18°C9 mph, NE9%10000m1023hPa51%
16-Jun-2024 21:00Clear Sky16°C7 mph, E0%10000m1024hPa52%
17-Jun-2024 00:00Clear Sky14°C7 mph, E0%10000m1024hPa54%
17-Jun-2024 03:00Clear Sky13°C9 mph, E0%10000m1024hPa62%
17-Jun-2024 06:00Clear Sky15°C9 mph, E0%10000m1025hPa64%
17-Jun-2024 09:00Clear Sky21°C13 mph, E0%10000m1024hPa47%
17-Jun-2024 12:00Clear Sky24°C9 mph, NE0%10000m1020hPa33%
17-Jun-2024 15:00Clear Sky22°C7 mph, NE0%10000m1019hPa35%
17-Jun-2024 18:00Clear Sky18°C7 mph, E0%10000m1021hPa46%
17-Jun-2024 21:00Clear Sky16°C7 mph, E0%10000m1021hPa54%
18-Jun-2024 00:00Clear Sky14°C4 mph, E0%10000m1021hPa65%
18-Jun-2024 03:00Clear Sky13°C4 mph, NE0%10000m1021hPa71%
18-Jun-2024 06:00Clear Sky16°C4 mph, NE0%10000m1022hPa59%
18-Jun-2024 09:00Clear Sky21°C4 mph, NE0%10000m1021hPa41%
18-Jun-2024 12:00Clear Sky25°C0 mph, N0%10000m1017hPa31%
18-Jun-2024 15:00Clear Sky24°C2 mph, SE2%10000m1016hPa34%
18-Jun-2024 18:00Clear Sky20°C4 mph, N3%10000m1018hPa40%
18-Jun-2024 21:00Clear Sky19°C4 mph, NW6%10000m1018hPa44%
19-Jun-2024 00:00Clear Sky17°C4 mph, S8%10000m1018hPa47%
19-Jun-2024 03:00Clear Sky15°C4 mph, W4%10000m1018hPa54%
19-Jun-2024 06:00Clear Sky18°C4 mph, W3%10000m1020hPa45%
19-Jun-2024 09:00Clear Sky25°C7 mph, W0%10000m1019hPa28%
19-Jun-2024 12:00Clear Sky28°C2 mph, SW1%10000m1015hPa19%
19-Jun-2024 15:00Clear Sky26°C7 mph, N0%10000m1015hPa22%
19-Jun-2024 18:00Clear Sky22°C7 mph, N0%10000m1017hPa28%
19-Jun-2024 21:00Clear Sky19°C4 mph, SE0%10000m1019hPa32%
20-Jun-2024 00:00Clear Sky18°C7 mph, E0%10000m1019hPa37%
20-Jun-2024 03:00Clear Sky16°C7 mph, E0%10000m1020hPa41%
20-Jun-2024 06:00Clear Sky18°C9 mph, E0%10000m1023hPa37%
20-Jun-2024 09:00Clear Sky25°C18 mph, E0%10000m1023hPa25%
20-Jun-2024 12:00Clear Sky27°C18 mph, E0%10000m1020hPa22%
20-Jun-2024 15:00Clear Sky25°C16 mph, E0%10000m1020hPa27%
20-Jun-2024 18:00Clear Sky20°C13 mph, E0%10000m1023hPa41%
20-Jun-2024 21:00Clear Sky18°C16 mph, E0%10000m1023hPa52%
21-Jun-2024 00:00Clear Sky16°C11 mph, E0%10000m1024hPa61%
21-Jun-2024 03:00Clear Sky14°C9 mph, E0%10000m1024hPa70%
21-Jun-2024 06:00Clear Sky15°C11 mph, E0%10000m1027hPa70%